Fort Steele, Wyoming
Current Conditions -  °F | °C
As of 8:53 PM on Monday 20 Oct 2014 (Local Time) from KRWL Reporting Station
Clear Clear  
Wind Chill: 52°   Ceiling: Unl
Heat Index: 52°   Visibility: 10mi
Dew Point: 33°   Wind: 9mph
Humidity: 49%   Direction: 260°W
Pressure: 30.11"   Gusts: NA
Location:  41.7532°N, 107.372°W
Report Text: KRWL 210253Z AUTO 26008KT 10SM CLR 11/01 A3011 RMK AO2 SLP154 T01110006 55000
Loading
Personal Weather Stations






























Interactive Weather Map
Tropical Storm Tracking
New forecast layout! Learn more

10-Day Weather Forecast

Advertisements
Track Severe Weather on mobile